HorshamWeather.Com Historical Data
 
Daily Summary for May 22, 2015 Units:  English    Metric   Both
« Previous Day
Next Day »
Daily Weekly Monthly Yearly Custom
  Current: High: Low: Average:
Temperature: 47.8 °F 49.9 °F 47.8 °F 49.3 °F
Dew Point: 45.3 °F 48.2 °F 45.1 °F 47.1 °F
Humidity: 91% 94% 89% 92%
Wind Speed: 0.0mph 1.0mph 0.0mph 1mph
Wind Gust: 0.0mph 3.0mph - -
WindCalm - - South
Pressure: 29.91 in 29.92 in 29.90 in -
Precipitation: 0.00 in      
Historical Graphs
 
 
Tabular Data for May 22, 2015
Time Temperature Dew Point Pressure Wind Wind Speed Wind Gust Humidity Rainfall Rate (Hourly)
00:03 49.0 °F 46.8 °F 29.92 in Calm     92% 0.00 in
00:08 48.9 °F 46.7 °F 29.92 in Calm     92% 0.00 in
00:18 48.9 °F 47.0 °F 29.92 in Calm     93% 0.00 in
00:23 49.0 °F 47.3 °F 29.92 in Calm     94% 0.00 in
00:28 49.1 °F 47.5 °F 29.92 in Calm     94% 0.00 in
00:33 49.2 °F 47.5 °F 29.92 in Calm     94% 0.00 in
00:38 49.3 °F 47.7 °F 29.91 in Calm     94% 0.00 in
00:43 49.4 °F 47.8 °F 29.91 in Calm     94% 0.00 in
00:48 49.4 °F 47.8 °F 29.91 in Calm     94% 0.00 in
00:53 49.5 °F 47.8 °F 29.91 in Calm     94% 0.00 in
00:58 49.6 °F 48.0 °F 29.91 in Calm     94% 0.00 in
01:03 49.6 °F 48.0 °F 29.91 in Calm     94% 0.00 in
01:08 49.6 °F 48.0 °F 29.91 in Calm     94% 0.00 in
01:18 49.7 °F 48.0 °F 29.91 in Calm     94% 0.00 in
01:23 49.8 °F 48.2 °F 29.91 in Calm     94% 0.00 in
01:28 49.8 °F 48.2 °F 29.91 in Calm   2.0 mph 94% 0.00 in
01:33 49.9 °F 48.2 °F 29.91 in Calm     94% 0.00 in
01:38 49.9 °F 48.2 °F 29.91 in Calm   1.0 mph 94% 0.00 in
01:43 49.9 °F 48.2 °F 29.91 in Calm     94% 0.00 in
01:48 49.8 °F 48.2 °F 29.91 in Calm     94% 0.00 in
01:53 49.8 °F 47.9 °F 29.91 in South 1.0 mph 1.0 mph 93% 0.00 in
01:58 49.7 °F 47.8 °F 29.91 in Calm   1.0 mph 93% 0.00 in
02:03 49.7 °F 47.8 °F 29.90 in Calm     93% 0.00 in
02:08 49.7 °F 47.8 °F 29.90 in Calm     93% 0.00 in
02:13 49.7 °F 47.8 °F 29.90 in Calm     93% 0.00 in
02:18 49.7 °F 47.8 °F 29.90 in Calm   1.0 mph 93% 0.00 in
02:23 49.8 °F 47.6 °F 29.90 in Calm   1.0 mph 92% 0.00 in
02:28 49.8 °F 47.6 °F 29.90 in Calm   1.0 mph 92% 0.00 in
02:33 49.8 °F 47.6 °F 29.90 in Calm   1.0 mph 92% 0.00 in
02:38 49.8 °F 47.6 °F 29.90 in Calm   1.0 mph 92% 0.00 in
02:43 49.8 °F 47.6 °F 29.90 in Calm     92% 0.00 in
02:48 49.8 °F 47.6 °F 29.90 in Calm     92% 0.00 in
02:53 49.9 °F 47.7 °F 29.90 in Calm     92% 0.00 in
02:58 49.9 °F 47.4 °F 29.90 in Calm   1.0 mph 91% 0.00 in
03:03 49.8 °F 47.3 °F 29.90 in Calm   1.0 mph 91% 0.00 in
03:08 49.8 °F 47.3 °F 29.90 in Calm   1.0 mph 91% 0.00 in
03:13 49.7 °F 46.9 °F 29.90 in Calm   2.0 mph 90% 0.00 in
03:18 49.6 °F 46.8 °F 29.90 in Calm   1.0 mph 90% 0.00 in
03:23 49.4 °F 46.3 °F 29.90 in Calm     89% 0.00 in
03:28 49.2 °F 46.1 °F 29.90 in Calm     89% 0.00 in
03:33 49.0 °F 45.9 °F 29.90 in Calm   1.0 mph 89% 0.00 in
03:38 48.8 °F 45.7 °F 29.90 in Calm   1.0 mph 89% 0.00 in
03:43 48.7 °F 45.6 °F 29.90 in South 1.0 mph 2.0 mph 89% 0.00 in
03:48 48.5 °F 45.4 °F 29.91 in Calm   1.0 mph 89% 0.00 in
03:53 48.3 °F 45.5 °F 29.91 in Calm   1.0 mph 90% 0.00 in
03:58 48.2 °F 45.4 °F 29.91 in Calm     90% 0.00 in
04:03 48.1 °F 45.3 °F 29.91 in Calm   3.0 mph 90% 0.00 in
04:08 47.9 °F 45.1 °F 29.91 in Calm   1.0 mph 90% 0.00 in
04:13 47.9 °F 45.4 °F 29.91 in Calm   2.0 mph 91% 0.00 in
04:18 47.8 °F 45.3 °F 29.91 in Calm   1.0 mph 91% 0.00 in
04:23 47.8 °F 45.3 °F 29.91 in Calm     91% 0.00 in
HorshamWeather.Com
Compliments of Weather Underground